sensor_id;sensor_type;location;lat;lon;timestamp;temperature;humidity
11647;DHT22;5880;52.342;9.662;2023-02-28T00:00:49;4.80;50.00
11647;DHT22;5880;52.342;9.662;2023-02-28T00:03:15;4.70;50.20
11647;DHT22;5880;52.342;9.662;2023-02-28T00:05:41;4.60;50.30
11647;DHT22;5880;52.342;9.662;2023-02-28T00:08:07;4.60;50.40
11647;DHT22;5880;52.342;9.662;2023-02-28T00:10:34;4.60;50.60
11647;DHT22;5880;52.342;9.662;2023-02-28T00:13:05;4.50;51.40
11647;DHT22;5880;52.342;9.662;2023-02-28T00:15:32;4.50;50.80
11647;DHT22;5880;52.342;9.662;2023-02-28T00:17:58;4.50;50.80
11647;DHT22;5880;52.342;9.662;2023-02-28T00:20:24;4.60;50.90
11647;DHT22;5880;52.342;9.662;2023-02-28T00:22:51;4.40;51.00
11647;DHT22;5880;52.342;9.662;2023-02-28T00:25:21;4.40;51.10
11647;DHT22;5880;52.342;9.662;2023-02-28T00:27:48;4.50;51.40
11647;DHT22;5880;52.342;9.662;2023-02-28T00:30:17;4.40;51.40
11647;DHT22;5880;52.342;9.662;2023-02-28T00:32:45;4.40;51.80
11647;DHT22;5880;52.342;9.662;2023-02-28T00:35:11;4.40;51.60
11647;DHT22;5880;52.342;9.662;2023-02-28T00:37:38;4.40;51.80
11647;DHT22;5880;52.342;9.662;2023-02-28T00:40:04;4.40;51.80
11647;DHT22;5880;52.342;9.662;2023-02-28T00:42:31;4.40;51.90
11647;DHT22;5880;52.342;9.662;2023-02-28T00:44:58;4.40;51.80
11647;DHT22;5880;52.342;9.662;2023-02-28T00:47:23;4.40;51.80
11647;DHT22;5880;52.342;9.662;2023-02-28T00:49:49;4.40;51.90
11647;DHT22;5880;52.342;9.662;2023-02-28T00:52:14;4.40;51.90
11647;DHT22;5880;52.342;9.662;2023-02-28T00:54:40;4.40;51.90
11647;DHT22;5880;52.342;9.662;2023-02-28T00:57:06;4.60;52.00
11647;DHT22;5880;52.342;9.662;2023-02-28T00:59:31;4.40;51.90
11647;DHT22;5880;52.342;9.662;2023-02-28T01:01:57;4.40;51.80
11647;DHT22;5880;52.342;9.662;2023-02-28T01:04:23;4.30;51.80
11647;DHT22;5880;52.342;9.662;2023-02-28T01:06:48;4.30;51.70
11647;DHT22;5880;52.342;9.662;2023-02-28T01:09:14;4.30;51.60
11647;DHT22;5880;52.342;9.662;2023-02-28T01:11:41;4.30;51.60
11647;DHT22;5880;52.342;9.662;2023-02-28T01:14:15;4.20;51.60
11647;DHT22;5880;52.342;9.662;2023-02-28T01:16:42;4.20;51.70
11647;DHT22;5880;52.342;9.662;2023-02-28T01:19:08;4.20;51.50
11647;DHT22;5880;52.342;9.662;2023-02-28T01:21:34;4.10;51.50
11647;DHT22;5880;52.342;9.662;2023-02-28T01:24:01;4.10;51.50
11647;DHT22;5880;52.342;9.662;2023-02-28T01:26:27;4.10;51.60
11647;DHT22;5880;52.342;9.662;2023-02-28T01:28:53;4.00;51.50
11647;DHT22;5880;52.342;9.662;2023-02-28T01:31:20;4.10;51.70
11647;DHT22;5880;52.342;9.662;2023-02-28T01:33:47;3.90;51.70
11647;DHT22;5880;52.342;9.662;2023-02-28T01:36:15;3.90;51.60
11647;DHT22;5880;52.342;9.662;2023-02-28T01:38:43;3.90;51.80
11647;DHT22;5880;52.342;9.662;2023-02-28T01:41:20;3.80;51.70
11647;DHT22;5880;52.342;9.662;2023-02-28T01:46:14;3.70;51.70
11647;DHT22;5880;52.342;9.662;2023-02-28T01:48:50;3.70;51.90
11647;DHT22;5880;52.342;9.662;2023-02-28T01:54:14;3.60;52.30
11647;DHT22;5880;52.342;9.662;2023-02-28T01:56:57;3.60;51.90
11647;DHT22;5880;52.342;9.662;2023-02-28T01:59:34;3.50;52.30
11647;DHT22;5880;52.342;9.662;2023-02-28T02:02:22;3.50;52.50
11647;DHT22;5880;52.342;9.662;2023-02-28T02:05:00;3.50;52.00
11647;DHT22;5880;52.342;9.662;2023-02-28T02:07:32;3.40;52.50
11647;DHT22;5880;52.342;9.662;2023-02-28T02:10:11;3.40;52.20
11647;DHT22;5880;52.342;9.662;2023-02-28T02:13:10;3.30;52.40
11647;DHT22;5880;52.342;9.662;2023-02-28T02:16:04;3.30;52.80
11647;DHT22;5880;52.342;9.662;2023-02-28T02:25:22;3.20;52.70
11647;DHT22;5880;52.342;9.662;2023-02-28T02:40:40;3.00;52.50
11647;DHT22;5880;52.342;9.662;2023-02-28T02:43:46;3.00;52.50
11647;DHT22;5880;52.342;9.662;2023-02-28T02:46:24;2.90;53.10
11647;DHT22;5880;52.342;9.662;2023-02-28T02:48:53;2.90;52.50
11647;DHT22;5880;52.342;9.662;2023-02-28T02:51:23;2.90;52.30
11647;DHT22;5880;52.342;9.662;2023-02-28T02:54:11;3.00;52.20
11647;DHT22;5880;52.342;9.662;2023-02-28T02:56:43;2.80;52.80
11647;DHT22;5880;52.342;9.662;2023-02-28T02:59:15;2.80;52.50
11647;DHT22;5880;52.342;9.662;2023-02-28T03:01:50;2.70;52.60
11647;DHT22;5880;52.342;9.662;2023-02-28T03:04:21;2.70;52.70
11647;DHT22;5880;52.342;9.662;2023-02-28T03:06:50;2.70;52.60
11647;DHT22;5880;52.342;9.662;2023-02-28T03:09:23;2.70;52.70
11647;DHT22;5880;52.342;9.662;2023-02-28T03:11:52;2.70;52.50
11647;DHT22;5880;52.342;9.662;2023-02-28T03:18:19;2.70;53.40
11647;DHT22;5880;52.342;9.662;2023-02-28T03:21:05;2.60;52.80
11647;DHT22;5880;52.342;9.662;2023-02-28T03:23:58;2.60;53.30
11647;DHT22;5880;52.342;9.662;2023-02-28T03:26:36;2.60;53.30
11647;DHT22;5880;52.342;9.662;2023-02-28T03:31:49;2.60;53.10
11647;DHT22;5880;52.342;9.662;2023-02-28T03:34:26;2.60;52.80
11647;DHT22;5880;52.342;9.662;2023-02-28T03:37:03;2.50;53.00
11647;DHT22;5880;52.342;9.662;2023-02-28T03:39:59;2.50;53.60
11647;DHT22;5880;52.342;9.662;2023-02-28T03:42:34;2.50;53.40
11647;DHT22;5880;52.342;9.662;2023-02-28T03:45:10;2.50;52.80
11647;DHT22;5880;52.342;9.662;2023-02-28T03:47:46;2.50;53.00
11647;DHT22;5880;52.342;9.662;2023-02-28T03:50:27;2.50;52.90
11647;DHT22;5880;52.342;9.662;2023-02-28T03:53:16;2.40;53.00
11647;DHT22;5880;52.342;9.662;2023-02-28T03:55:58;2.40;53.20
11647;DHT22;5880;52.342;9.662;2023-02-28T03:58:43;2.40;53.20
11647;DHT22;5880;52.342;9.662;2023-02-28T04:01:20;2.40;53.20
11647;DHT22;5880;52.342;9.662;2023-02-28T04:03:50;2.40;53.20
11647;DHT22;5880;52.342;9.662;2023-02-28T04:06:19;2.40;52.70
11647;DHT22;5880;52.342;9.662;2023-02-28T04:08:47;2.30;53.00
11647;DHT22;5880;52.342;9.662;2023-02-28T04:11:21;2.30;52.90
11647;DHT22;5880;52.342;9.662;2023-02-28T04:13:49;2.30;52.80
11647;DHT22;5880;52.342;9.662;2023-02-28T04:16:15;2.30;52.80
11647;DHT22;5880;52.342;9.662;2023-02-28T04:18:42;2.30;52.80
11647;DHT22;5880;52.342;9.662;2023-02-28T04:21:09;2.30;52.80
11647;DHT22;5880;52.342;9.662;2023-02-28T04:23:35;2.20;52.60
11647;DHT22;5880;52.342;9.662;2023-02-28T04:26:01;2.20;52.60
11647;DHT22;5880;52.342;9.662;2023-02-28T04:28:26;2.20;52.60
11647;DHT22;5880;52.342;9.662;2023-02-28T04:31:01;1.90;52.60
11647;DHT22;5880;52.342;9.662;2023-02-28T04:33:28;2.20;53.30
11647;DHT22;5880;52.342;9.662;2023-02-28T04:36:04;2.10;52.90
11647;DHT22;5880;52.342;9.662;2023-02-28T04:38:33;2.10;53.40
11647;DHT22;5880;52.342;9.662;2023-02-28T04:41:01;2.10;53.10
11647;DHT22;5880;52.342;9.662;2023-02-28T04:43:28;2.10;53.10
11647;DHT22;5880;52.342;9.662;2023-02-28T04:45:55;2.10;53.20
11647;DHT22;5880;52.342;9.662;2023-02-28T04:48:26;2.10;53.30
11647;DHT22;5880;52.342;9.662;2023-02-28T04:50:53;2.00;53.50
11647;DHT22;5880;52.342;9.662;2023-02-28T04:53:20;2.00;53.20
11647;DHT22;5880;52.342;9.662;2023-02-28T04:55:46;2.00;53.20
11647;DHT22;5880;52.342;9.662;2023-02-28T04:58:13;2.10;53.20
11647;DHT22;5880;52.342;9.662;2023-02-28T05:00:39;2.00;53.20
11647;DHT22;5880;52.342;9.662;2023-02-28T05:03:05;2.00;53.20
11647;DHT22;5880;52.342;9.662;2023-02-28T05:05:30;2.00;53.30
11647;DHT22;5880;52.342;9.662;2023-02-28T05:07:56;2.00;53.30
11647;DHT22;5880;52.342;9.662;2023-02-28T05:10:22;2.00;53.30
11647;DHT22;5880;52.342;9.662;2023-02-28T05:12:48;1.90;53.30
11647;DHT22;5880;52.342;9.662;2023-02-28T05:15:15;1.90;53.30
11647;DHT22;5880;52.342;9.662;2023-02-28T05:17:42;1.90;53.40
11647;DHT22;5880;52.342;9.662;2023-02-28T05:20:08;1.90;53.40
11647;DHT22;5880;52.342;9.662;2023-02-28T05:22:39;1.90;53.50
11647;DHT22;5880;52.342;9.662;2023-02-28T05:25:08;1.90;53.40
11647;DHT22;5880;52.342;9.662;2023-02-28T05:27:37;1.90;53.40
11647;DHT22;5880;52.342;9.662;2023-02-28T05:30:03;1.90;53.40
11647;DHT22;5880;52.342;9.662;2023-02-28T05:32:31;1.80;53.40
11647;DHT22;5880;52.342;9.662;2023-02-28T05:34:56;1.80;53.50
11647;DHT22;5880;52.342;9.662;2023-02-28T05:37:22;1.80;53.70
11647;DHT22;5880;52.342;9.662;2023-02-28T05:39:48;1.80;53.60
11647;DHT22;5880;52.342;9.662;2023-02-28T05:42:13;1.80;53.70
11647;DHT22;5880;52.342;9.662;2023-02-28T05:44:39;1.80;53.50
11647;DHT22;5880;52.342;9.662;2023-02-28T05:47:05;1.70;53.50
11647;DHT22;5880;52.342;9.662;2023-02-28T05:49:30;2.10;53.80
11647;DHT22;5880;52.342;9.662;2023-02-28T05:51:56;1.70;53.80
11647;DHT22;5880;52.342;9.662;2023-02-28T05:54:22;1.70;53.70
11647;DHT22;5880;52.342;9.662;2023-02-28T05:56:47;1.60;54.50
11647;DHT22;5880;52.342;9.662;2023-02-28T05:59:13;1.70;54.00
11647;DHT22;5880;52.342;9.662;2023-02-28T06:01:41;1.70;54.00
11647;DHT22;5880;52.342;9.662;2023-02-28T06:04:14;1.60;54.20
11647;DHT22;5880;52.342;9.662;2023-02-28T06:06:44;1.70;54.20
11647;DHT22;5880;52.342;9.662;2023-02-28T06:09:11;1.60;54.00
11647;DHT22;5880;52.342;9.662;2023-02-28T06:11:37;1.60;54.00
11647;DHT22;5880;52.342;9.662;2023-02-28T06:14:04;1.60;54.00
11647;DHT22;5880;52.342;9.662;2023-02-28T06:16:32;1.60;54.10
11647;DHT22;5880;52.342;9.662;2023-02-28T06:19:00;1.60;54.00
11647;DHT22;5880;52.342;9.662;2023-02-28T06:21:28;1.60;53.90
11647;DHT22;5880;52.342;9.662;2023-02-28T06:23:55;1.50;53.80
11647;DHT22;5880;52.342;9.662;2023-02-28T06:26:23;1.50;53.80
11647;DHT22;5880;52.342;9.662;2023-02-28T06:28:49;1.50;53.90
11647;DHT22;5880;52.342;9.662;2023-02-28T06:31:16;1.50;54.10
11647;DHT22;5880;52.342;9.662;2023-02-28T06:33:44;1.50;54.40
11647;DHT22;5880;52.342;9.662;2023-02-28T06:36:11;1.50;54.50
11647;DHT22;5880;52.342;9.662;2023-02-28T06:38:38;1.50;54.60
11647;DHT22;5880;52.342;9.662;2023-02-28T06:41:05;1.50;54.70
11647;DHT22;5880;52.342;9.662;2023-02-28T06:43:34;1.50;54.60
11647;DHT22;5880;52.342;9.662;2023-02-28T06:46:06;1.50;54.90
11647;DHT22;5880;52.342;9.662;2023-02-28T06:48:34;1.50;54.90
11647;DHT22;5880;52.342;9.662;2023-02-28T06:51:12;2.40;55.20
11647;DHT22;5880;52.342;9.662;2023-02-28T06:53:40;1.60;55.40
11647;DHT22;5880;52.342;9.662;2023-02-28T06:56:07;1.60;55.00
11647;DHT22;5880;52.342;9.662;2023-02-28T06:58:34;1.60;55.10
11647;DHT22;5880;52.342;9.662;2023-02-28T07:01:01;1.70;55.00
11647;DHT22;5880;52.342;9.662;2023-02-28T07:03:27;1.70;55.10
11647;DHT22;5880;52.342;9.662;2023-02-28T07:05:52;1.70;55.10
11647;DHT22;5880;52.342;9.662;2023-02-28T07:08:18;1.80;55.10
11647;DHT22;5880;52.342;9.662;2023-02-28T07:10:44;1.80;55.10
11647;DHT22;5880;52.342;9.662;2023-02-28T07:13:10;1.80;55.20
11647;DHT22;5880;52.342;9.662;2023-02-28T07:15:36;1.90;55.30
11647;DHT22;5880;52.342;9.662;2023-02-28T07:18:03;1.90;55.40
11647;DHT22;5880;52.342;9.662;2023-02-28T07:20:29;1.90;55.30
11647;DHT22;5880;52.342;9.662;2023-02-28T07:22:55;2.00;55.50
11647;DHT22;5880;52.342;9.662;2023-02-28T07:25:30;2.00;55.50
11647;DHT22;5880;52.342;9.662;2023-02-28T07:27:56;2.10;56.30
11647;DHT22;5880;52.342;9.662;2023-02-28T07:30:22;2.10;57.00
11647;DHT22;5880;52.342;9.662;2023-02-28T07:32:47;2.30;58.20
11647;DHT22;5880;52.342;9.662;2023-02-28T07:35:13;2.50;60.80
11647;DHT22;5880;52.342;9.662;2023-02-28T07:37:41;2.90;63.00
11647;DHT22;5880;52.342;9.662;2023-02-28T07:40:10;3.40;64.80
11647;DHT22;5880;52.342;9.662;2023-02-28T07:42:37;4.10;66.00
11647;DHT22;5880;52.342;9.662;2023-02-28T07:45:06;4.70;66.90
11647;DHT22;5880;52.342;9.662;2023-02-28T07:47:33;5.40;66.50
11647;DHT22;5880;52.342;9.662;2023-02-28T07:49:59;6.00;64.60
11647;DHT22;5880;52.342;9.662;2023-02-28T07:52:25;6.50;61.70
11647;DHT22;5880;52.342;9.662;2023-02-28T07:54:51;6.80;59.00
11647;DHT22;5880;52.342;9.662;2023-02-28T07:57:17;6.90;57.00
11647;DHT22;5880;52.342;9.662;2023-02-28T07:59:43;7.00;55.40
11647;DHT22;5880;52.342;9.662;2023-02-28T08:02:16;6.90;54.20
11647;DHT22;5880;52.342;9.662;2023-02-28T08:04:42;6.80;53.10
11647;DHT22;5880;52.342;9.662;2023-02-28T08:07:09;6.70;53.10
11647;DHT22;5880;52.342;9.662;2023-02-28T08:09:42;6.60;52.60
11647;DHT22;5880;52.342;9.662;2023-02-28T08:12:09;6.40;52.50
11647;DHT22;5880;52.342;9.662;2023-02-28T08:14:36;6.30;52.70
11647;DHT22;5880;52.342;9.662;2023-02-28T08:17:03;6.20;52.40
11647;DHT22;5880;52.342;9.662;2023-02-28T08:19:29;6.00;52.00
11647;DHT22;5880;52.342;9.662;2023-02-28T08:21:56;6.00;52.20
11647;DHT22;5880;52.342;9.662;2023-02-28T08:24:22;5.80;52.10
11647;DHT22;5880;52.342;9.662;2023-02-28T08:26:48;5.70;52.30
11647;DHT22;5880;52.342;9.662;2023-02-28T08:29:14;5.70;52.50
11647;DHT22;5880;52.342;9.662;2023-02-28T08:31:41;5.60;52.40
11647;DHT22;5880;52.342;9.662;2023-02-28T08:34:08;5.50;52.30
11647;DHT22;5880;52.342;9.662;2023-02-28T08:36:36;5.50;52.50
11647;DHT22;5880;52.342;9.662;2023-02-28T08:39:03;5.40;52.50
11647;DHT22;5880;52.342;9.662;2023-02-28T08:41:29;5.40;52.50
11647;DHT22;5880;52.342;9.662;2023-02-28T08:43:55;5.30;52.50
11647;DHT22;5880;52.342;9.662;2023-02-28T08:46:21;5.30;52.10
11647;DHT22;5880;52.342;9.662;2023-02-28T08:48:46;5.30;51.90
11647;DHT22;5880;52.342;9.662;2023-02-28T08:51:16;5.20;51.80
11647;DHT22;5880;52.342;9.662;2023-02-28T08:53:46;5.20;52.10
11647;DHT22;5880;52.342;9.662;2023-02-28T08:56:15;5.20;52.30
11647;DHT22;5880;52.342;9.662;2023-02-28T08:58:45;5.20;52.10
11647;DHT22;5880;52.342;9.662;2023-02-28T09:01:15;5.10;51.50
11647;DHT22;5880;52.342;9.662;2023-02-28T09:03:44;5.20;51.70
11647;DHT22;5880;52.342;9.662;2023-02-28T09:06:12;5.20;51.10
11647;DHT22;5880;52.342;9.662;2023-02-28T09:08:38;5.20;51.30
11647;DHT22;5880;52.342;9.662;2023-02-28T09:11:04;5.20;51.70
11647;DHT22;5880;52.342;9.662;2023-02-28T09:13:31;5.20;51.60
11647;DHT22;5880;52.342;9.662;2023-02-28T09:15:58;5.30;52.10
11647;DHT22;5880;52.342;9.662;2023-02-28T09:18:26;5.30;52.40
11647;DHT22;5880;52.342;9.662;2023-02-28T09:20:51;5.30;51.20
11647;DHT22;5880;52.342;9.662;2023-02-28T09:23:17;5.40;51.90
11647;DHT22;5880;52.342;9.662;2023-02-28T09:25:51;5.60;53.90
11647;DHT22;5880;52.342;9.662;2023-02-28T09:28:20;5.90;55.20
11647;DHT22;5880;52.342;9.662;2023-02-28T09:30:52;6.30;56.50
11647;DHT22;5880;52.342;9.662;2023-02-28T09:33:20;6.70;52.50
11647;DHT22;5880;52.342;9.662;2023-02-28T09:35:48;7.10;53.20
11647;DHT22;5880;52.342;9.662;2023-02-28T09:38:22;7.60;51.60
11647;DHT22;5880;52.342;9.662;2023-02-28T09:41:19;8.10;51.40
11647;DHT22;5880;52.342;9.662;2023-02-28T09:43:53;8.60;45.60
11647;DHT22;5880;52.342;9.662;2023-02-28T09:46:34;9.10;47.80
11647;DHT22;5880;52.342;9.662;2023-02-28T09:49:12;9.50;47.60
11647;DHT22;5880;52.342;9.662;2023-02-28T09:52:03;9.90;47.70
11647;DHT22;5880;52.342;9.662;2023-02-28T09:54:34;10.20;44.10
11647;DHT22;5880;52.342;9.662;2023-02-28T10:00:29;10.80;41.20
11647;DHT22;5880;52.342;9.662;2023-02-28T10:03:03;11.20;43.50
11647;DHT22;5880;52.342;9.662;2023-02-28T10:06:08;11.40;47.90
11647;DHT22;5880;52.342;9.662;2023-02-28T10:09:00;11.80;46.40
11647;DHT22;5880;52.342;9.662;2023-02-28T10:11:29;12.00;41.60
11647;DHT22;5880;52.342;9.662;2023-02-28T10:14:22;12.20;41.60
11647;DHT22;5880;52.342;9.662;2023-02-28T10:16:55;12.30;33.30
11647;DHT22;5880;52.342;9.662;2023-02-28T10:19:32;12.50;40.00
11647;DHT22;5880;52.342;9.662;2023-02-28T10:22:29;12.60;39.10
11647;DHT22;5880;52.342;9.662;2023-02-28T10:25:21;12.60;36.80
11647;DHT22;5880;52.342;9.662;2023-02-28T10:27:52;12.60;35.40
11647;DHT22;5880;52.342;9.662;2023-02-28T10:30:21;12.60;35.90
11647;DHT22;5880;52.342;9.662;2023-02-28T10:32:50;12.60;37.40
11647;DHT22;5880;52.342;9.662;2023-02-28T10:35:21;12.60;36.90
11647;DHT22;5880;52.342;9.662;2023-02-28T10:37:51;12.50;34.90
11647;DHT22;5880;52.342;9.662;2023-02-28T10:42:59;12.30;33.50
11647;DHT22;5880;52.342;9.662;2023-02-28T10:45:30;12.20;33.70
11647;DHT22;5880;52.342;9.662;2023-02-28T10:48:00;12.10;34.60
11647;DHT22;5880;52.342;9.662;2023-02-28T10:56:17;11.60;33.40
11647;DHT22;5880;52.342;9.662;2023-02-28T10:58:59;11.30;32.50
11647;DHT22;5880;52.342;9.662;2023-02-28T11:03:56;10.70;31.80
11647;DHT22;5880;52.342;9.662;2023-02-28T11:06:26;10.40;32.40
11647;DHT22;5880;52.342;9.662;2023-02-28T11:09:03;10.20;33.00
11647;DHT22;5880;52.342;9.662;2023-02-28T11:11:43;9.90;33.70
11647;DHT22;5880;52.342;9.662;2023-02-28T11:14:28;9.60;33.00
11647;DHT22;5880;52.342;9.662;2023-02-28T11:17:24;9.40;33.60
11647;DHT22;5880;52.342;9.662;2023-02-28T11:20:06;9.20;33.40
11647;DHT22;5880;52.342;9.662;2023-02-28T11:22:44;9.10;35.10
11647;DHT22;5880;52.342;9.662;2023-02-28T11:25:33;8.90;34.00
11647;DHT22;5880;52.342;9.662;2023-02-28T11:28:04;8.80;34.60
11647;DHT22;5880;52.342;9.662;2023-02-28T11:30:37;8.60;35.00
11647;DHT22;5880;52.342;9.662;2023-02-28T11:33:30;8.50;35.10
11647;DHT22;5880;52.342;9.662;2023-02-28T11:36:02;8.50;34.70
11647;DHT22;5880;52.342;9.662;2023-02-28T11:38:35;8.30;34.70
11647;DHT22;5880;52.342;9.662;2023-02-28T11:41:21;8.30;35.00
11647;DHT22;5880;52.342;9.662;2023-02-28T11:44:22;8.10;34.50
11647;DHT22;5880;52.342;9.662;2023-02-28T11:47:17;8.20;35.80
11647;DHT22;5880;52.342;9.662;2023-02-28T11:50:13;8.10;35.70
11647;DHT22;5880;52.342;9.662;2023-02-28T11:53:22;8.10;35.80
11647;DHT22;5880;52.342;9.662;2023-02-28T11:56:07;8.00;36.00
11647;DHT22;5880;52.342;9.662;2023-02-28T12:04:33;7.80;36.60
11647;DHT22;5880;52.342;9.662;2023-02-28T12:07:29;7.80;36.30
11647;DHT22;5880;52.342;9.662;2023-02-28T12:10:24;7.80;37.10
11647;DHT22;5880;52.342;9.662;2023-02-28T12:12:59;7.80;37.10
11647;DHT22;5880;52.342;9.662;2023-02-28T12:15:41;7.80;36.90
11647;DHT22;5880;52.342;9.662;2023-02-28T12:21:24;7.90;37.60
11647;DHT22;5880;52.342;9.662;2023-02-28T12:27:21;8.00;37.10
11647;DHT22;5880;52.342;9.662;2023-02-28T12:29:54;8.10;37.70
11647;DHT22;5880;52.342;9.662;2023-02-28T12:32:29;8.10;36.40
11647;DHT22;5880;52.342;9.662;2023-02-28T12:37:35;8.10;36.60
11647;DHT22;5880;52.342;9.662;2023-02-28T12:40:13;8.10;36.40
11647;DHT22;5880;52.342;9.662;2023-02-28T12:42:47;8.10;36.20
11647;DHT22;5880;52.342;9.662;2023-02-28T12:45:43;8.30;37.10
11647;DHT22;5880;52.342;9.662;2023-02-28T12:48:49;8.20;37.20
11647;DHT22;5880;52.342;9.662;2023-02-28T12:51:16;8.20;37.80
11647;DHT22;5880;52.342;9.662;2023-02-28T12:54:06;8.30;38.80
11647;DHT22;5880;52.342;9.662;2023-02-28T12:59:51;9.20;38.60
11647;DHT22;5880;52.342;9.662;2023-02-28T13:06:03;8.70;37.10
11647;DHT22;5880;52.342;9.662;2023-02-28T13:11:50;8.90;37.90
11647;DHT22;5880;52.342;9.662;2023-02-28T13:19:34;8.80;36.00
11647;DHT22;5880;52.342;9.662;2023-02-28T13:22:02;8.80;37.30
11647;DHT22;5880;52.342;9.662;2023-02-28T13:24:40;8.80;36.00
11647;DHT22;5880;52.342;9.662;2023-02-28T13:29:39;8.80;36.90
11647;DHT22;5880;52.342;9.662;2023-02-28T13:47:40;8.80;35.90
11647;DHT22;5880;52.342;9.662;2023-02-28T13:56:03;8.70;34.70
11647;DHT22;5880;52.342;9.662;2023-02-28T13:59:04;8.70;36.00
11647;DHT22;5880;52.342;9.662;2023-02-28T14:04:39;8.70;37.40
11647;DHT22;5880;52.342;9.662;2023-02-28T14:07:23;8.70;37.10
11647;DHT22;5880;52.342;9.662;2023-02-28T14:10:06;8.70;36.90
11647;DHT22;5880;52.342;9.662;2023-02-28T14:12:53;8.70;37.20
11647;DHT22;5880;52.342;9.662;2023-02-28T14:21:11;8.80;37.50
11647;DHT22;5880;52.342;9.662;2023-02-28T14:23:56;8.80;36.40
11647;DHT22;5880;52.342;9.662;2023-02-28T14:26:38;8.80;36.50
11647;DHT22;5880;52.342;9.662;2023-02-28T14:32:44;8.70;34.70
11647;DHT22;5880;52.342;9.662;2023-02-28T14:38:28;8.70;36.90
11647;DHT22;5880;52.342;9.662;2023-02-28T14:40:59;8.70;37.10
11647;DHT22;5880;52.342;9.662;2023-02-28T14:43:28;8.70;36.70
11647;DHT22;5880;52.342;9.662;2023-02-28T14:45:58;8.70;36.90
11647;DHT22;5880;52.342;9.662;2023-02-28T14:48:26;8.70;37.20
11647;DHT22;5880;52.342;9.662;2023-02-28T14:50:55;8.70;37.40
11647;DHT22;5880;52.342;9.662;2023-02-28T14:53:25;8.60;36.60
11647;DHT22;5880;52.342;9.662;2023-02-28T14:55:53;8.70;35.90
11647;DHT22;5880;52.342;9.662;2023-02-28T14:58:23;8.60;35.50
11647;DHT22;5880;52.342;9.662;2023-02-28T15:00:57;8.60;35.10
11647;DHT22;5880;52.342;9.662;2023-02-28T15:03:31;8.60;36.10
11647;DHT22;5880;52.342;9.662;2023-02-28T15:06:04;8.60;35.90
11647;DHT22;5880;52.342;9.662;2023-02-28T15:08:37;8.50;36.20
11647;DHT22;5880;52.342;9.662;2023-02-28T15:11:08;8.50;36.90
11647;DHT22;5880;52.342;9.662;2023-02-28T15:13:54;8.60;36.20
11647;DHT22;5880;52.342;9.662;2023-02-28T15:16:39;8.60;36.60
11647;DHT22;5880;52.342;9.662;2023-02-28T15:19:20;8.60;36.50
11647;DHT22;5880;52.342;9.662;2023-02-28T15:21:53;8.60;36.40
11647;DHT22;5880;52.342;9.662;2023-02-28T15:24:34;8.50;35.70
11647;DHT22;5880;52.342;9.662;2023-02-28T15:27:44;8.50;36.10
11647;DHT22;5880;52.342;9.662;2023-02-28T15:30:14;8.50;35.70
11647;DHT22;5880;52.342;9.662;2023-02-28T15:33:19;8.50;35.80
11647;DHT22;5880;52.342;9.662;2023-02-28T15:35:47;8.40;34.50
11647;DHT22;5880;52.342;9.662;2023-02-28T15:38:22;8.40;35.80
11647;DHT22;5880;52.342;9.662;2023-02-28T15:40:57;8.40;35.50
11647;DHT22;5880;52.342;9.662;2023-02-28T15:45:54;8.40;36.50
11647;DHT22;5880;52.342;9.662;2023-02-28T15:48:35;8.40;36.00
11647;DHT22;5880;52.342;9.662;2023-02-28T15:51:08;8.40;36.90
11647;DHT22;5880;52.342;9.662;2023-02-28T15:53:56;8.30;36.20
11647;DHT22;5880;52.342;9.662;2023-02-28T15:56:26;8.40;36.20
11647;DHT22;5880;52.342;9.662;2023-02-28T15:58:56;8.30;36.60
11647;DHT22;5880;52.342;9.662;2023-02-28T16:01:30;8.30;36.70
11647;DHT22;5880;52.342;9.662;2023-02-28T16:04:01;8.30;36.70
11647;DHT22;5880;52.342;9.662;2023-02-28T16:06:38;8.30;37.00
11647;DHT22;5880;52.342;9.662;2023-02-28T16:09:15;8.30;36.70
11647;DHT22;5880;52.342;9.662;2023-02-28T16:11:50;8.30;36.50
11647;DHT22;5880;52.342;9.662;2023-02-28T16:14:22;8.20;36.30
11647;DHT22;5880;52.342;9.662;2023-02-28T16:16:54;8.10;36.20
11647;DHT22;5880;52.342;9.662;2023-02-28T16:19:21;8.20;35.60
11647;DHT22;5880;52.342;9.662;2023-02-28T16:21:48;8.00;37.00
11647;DHT22;5880;52.342;9.662;2023-02-28T16:24:14;8.00;35.60
11647;DHT22;5880;52.342;9.662;2023-02-28T16:26:40;8.00;36.20
11647;DHT22;5880;52.342;9.662;2023-02-28T16:29:19;7.90;36.10
11647;DHT22;5880;52.342;9.662;2023-02-28T16:31:49;7.90;36.70
11647;DHT22;5880;52.342;9.662;2023-02-28T16:34:15;7.90;36.50
11647;DHT22;5880;52.342;9.662;2023-02-28T16:36:41;7.80;36.60
11647;DHT22;5880;52.342;9.662;2023-02-28T16:39:07;7.80;36.70
11647;DHT22;5880;52.342;9.662;2023-02-28T16:41:34;7.80;36.60
11647;DHT22;5880;52.342;9.662;2023-02-28T16:44:00;7.70;36.90
11647;DHT22;5880;52.342;9.662;2023-02-28T16:46:34;7.70;36.70
11647;DHT22;5880;52.342;9.662;2023-02-28T16:49:00;7.60;36.90
11647;DHT22;5880;52.342;9.662;2023-02-28T16:51:26;7.60;36.90
11647;DHT22;5880;52.342;9.662;2023-02-28T16:53:51;7.50;37.00
11647;DHT22;5880;52.342;9.662;2023-02-28T16:56:20;7.50;36.90
11647;DHT22;5880;52.342;9.662;2023-02-28T16:58:48;7.50;37.30
11647;DHT22;5880;52.342;9.662;2023-02-28T17:01:15;7.40;37.20
11647;DHT22;5880;52.342;9.662;2023-02-28T17:03:42;7.40;37.20
11647;DHT22;5880;52.342;9.662;2023-02-28T17:06:28;7.40;37.30
11647;DHT22;5880;52.342;9.662;2023-02-28T17:08:55;7.30;37.30
11647;DHT22;5880;52.342;9.662;2023-02-28T17:11:22;7.40;37.60
11647;DHT22;5880;52.342;9.662;2023-02-28T17:13:48;7.30;37.70
11647;DHT22;5880;52.342;9.662;2023-02-28T17:16:30;7.20;37.70
11647;DHT22;5880;52.342;9.662;2023-02-28T17:19:00;7.20;37.80
11647;DHT22;5880;52.342;9.662;2023-02-28T17:21:28;7.20;37.80
11647;DHT22;5880;52.342;9.662;2023-02-28T17:23:54;7.20;38.60
11647;DHT22;5880;52.342;9.662;2023-02-28T17:26:22;7.10;38.00
11647;DHT22;5880;52.342;9.662;2023-02-28T17:28:52;7.00;38.10
11647;DHT22;5880;52.342;9.662;2023-02-28T17:31:18;7.00;38.20
11647;DHT22;5880;52.342;9.662;2023-02-28T17:33:44;6.90;38.20
11647;DHT22;5880;52.342;9.662;2023-02-28T17:36:14;6.80;38.20
11647;DHT22;5880;52.342;9.662;2023-02-28T17:38:42;6.80;38.40
11647;DHT22;5880;52.342;9.662;2023-02-28T17:41:11;6.70;38.40
11647;DHT22;5880;52.342;9.662;2023-02-28T17:43:39;6.70;38.60
11647;DHT22;5880;52.342;9.662;2023-02-28T17:46:05;6.60;38.60
11647;DHT22;5880;52.342;9.662;2023-02-28T17:48:33;6.50;38.70
11647;DHT22;5880;52.342;9.662;2023-02-28T17:51:01;6.50;38.90
11647;DHT22;5880;52.342;9.662;2023-02-28T17:53:26;6.50;39.10
11647;DHT22;5880;52.342;9.662;2023-02-28T17:55:52;6.40;39.10
11647;DHT22;5880;52.342;9.662;2023-02-28T17:58:18;6.50;39.20
11647;DHT22;5880;52.342;9.662;2023-02-28T18:00:44;6.30;39.20
11647;DHT22;5880;52.342;9.662;2023-02-28T18:03:12;6.20;39.20
11647;DHT22;5880;52.342;9.662;2023-02-28T18:05:38;6.20;39.40
11647;DHT22;5880;52.342;9.662;2023-02-28T18:08:04;6.10;39.50
11647;DHT22;5880;52.342;9.662;2023-02-28T18:10:30;6.10;39.60
11647;DHT22;5880;52.342;9.662;2023-02-28T18:12:58;6.00;39.70
11647;DHT22;5880;52.342;9.662;2023-02-28T18:15:24;5.90;39.80
11647;DHT22;5880;52.342;9.662;2023-02-28T18:17:49;5.90;39.80
11647;DHT22;5880;52.342;9.662;2023-02-28T18:20:16;5.40;39.70
11647;DHT22;5880;52.342;9.662;2023-02-28T18:22:42;5.80;40.00
11647;DHT22;5880;52.342;9.662;2023-02-28T18:25:09;5.70;40.00
11647;DHT22;5880;52.342;9.662;2023-02-28T18:27:39;5.60;40.10